sensor_id;sensor_type;location;lat;lon;timestamp;P1;P2;P0
12246;PMS7003;6186;52.022;4.692;2023-07-13T00:01:55;3.75;3.00;1.00
12246;PMS7003;6186;52.022;4.692;2023-07-13T00:04:21;3.00;3.00;1.00
12246;PMS7003;6186;52.022;4.692;2023-07-13T00:06:48;4.80;2.80;1.00
12246;PMS7003;6186;52.022;4.692;2023-07-13T00:09:14;2.00;2.00;1.00
12246;PMS7003;6186;52.022;4.692;2023-07-13T00:11:40;4.00;3.40;1.00
12246;PMS7003;6186;52.022;4.692;2023-07-13T00:14:06;3.25;3.00;1.00
12246;PMS7003;6186;52.022;4.692;2023-07-13T00:16:33;3.20;3.00;1.00
12246;PMS7003;6186;52.022;4.692;2023-07-13T00:18:59;3.20;2.00;0.60
12246;PMS7003;6186;52.022;4.692;2023-07-13T00:21:24;3.00;3.00;1.00
12246;PMS7003;6186;52.022;4.692;2023-07-13T00:23:50;2.00;2.00;1.00
12246;PMS7003;6186;52.022;4.692;2023-07-13T00:26:15;2.00;2.00;1.00
12246;PMS7003;6186;52.022;4.692;2023-07-13T00:28:40;3.00;2.00;1.00
12246;PMS7003;6186;52.022;4.692;2023-07-13T00:31:05;2.00;2.00;1.00
12246;PMS7003;6186;52.022;4.692;2023-07-13T00:33:33;2.40;2.40;1.00
12246;PMS7003;6186;52.022;4.692;2023-07-13T00:35:58;2.50;2.25;1.00
12246;PMS7003;6186;52.022;4.692;2023-07-13T00:38:23;3.00;2.75;1.00
12246;PMS7003;6186;52.022;4.692;2023-07-13T00:40:49;2.00;2.00;1.00
12246;PMS7003;6186;52.022;4.692;2023-07-13T00:43:17;3.75;3.00;1.00
12246;PMS7003;6186;52.022;4.692;2023-07-13T00:48:11;2.50;2.50;1.00
12246;PMS7003;6186;52.022;4.692;2023-07-13T00:50:38;3.40;2.00;0.80
12246;PMS7003;6186;52.022;4.692;2023-07-13T00:53:05;2.80;2.80;1.00
12246;PMS7003;6186;52.022;4.692;2023-07-13T00:55:31;2.20;2.00;0.80
12246;PMS7003;6186;52.022;4.692;2023-07-13T00:57:57;2.00;1.80;0.00
12246;PMS7003;6186;52.022;4.692;2023-07-13T01:00:23;3.00;2.00;1.00
12246;PMS7003;6186;52.022;4.692;2023-07-13T01:02:50;3.00;2.00;0.00
12246;PMS7003;6186;52.022;4.692;2023-07-13T01:05:17;3.00;3.00;1.00
12246;PMS7003;6186;52.022;4.692;2023-07-13T01:07:44;2.40;2.40;1.00
12246;PMS7003;6186;52.022;4.692;2023-07-13T01:10:12;2.00;2.00;0.20
12246;PMS7003;6186;52.022;4.692;2023-07-13T01:12:38;3.00;2.40;0.20
12246;PMS7003;6186;52.022;4.692;2023-07-13T01:15:04;2.00;2.00;1.00
12246;PMS7003;6186;52.022;4.692;2023-07-13T01:17:30;2.00;2.00;1.00
12246;PMS7003;6186;52.022;4.692;2023-07-13T01:19:57;2.80;2.80;1.00
12246;PMS7003;6186;52.022;4.692;2023-07-13T01:22:22;2.00;2.00;0.50
12246;PMS7003;6186;52.022;4.692;2023-07-13T01:24:48;2.00;2.00;0.00
12246;PMS7003;6186;52.022;4.692;2023-07-13T01:27:14;2.00;2.00;0.50
12246;PMS7003;6186;52.022;4.692;2023-07-13T01:29:41;2.40;2.00;0.00
12246;PMS7003;6186;52.022;4.692;2023-07-13T01:32:09;2.00;2.00;1.00
12246;PMS7003;6186;52.022;4.692;2023-07-13T01:34:36;3.00;3.00;1.00
12246;PMS7003;6186;52.022;4.692;2023-07-13T01:37:01;3.00;3.00;1.00
12246;PMS7003;6186;52.022;4.692;2023-07-13T01:39:26;3.75;3.00;0.50
12246;PMS7003;6186;52.022;4.692;2023-07-13T01:41:51;2.50;2.50;0.00
12246;PMS7003;6186;52.022;4.692;2023-07-13T01:44:17;2.75;2.00;0.50
12246;PMS7003;6186;52.022;4.692;2023-07-13T01:46:42;2.00;2.00;0.75
12246;PMS7003;6186;52.022;4.692;2023-07-13T01:49:07;2.50;2.50;0.25
12246;PMS7003;6186;52.022;4.692;2023-07-13T01:51:32;2.25;2.00;1.00
12246;PMS7003;6186;52.022;4.692;2023-07-13T01:53:58;2.75;2.00;0.75
12246;PMS7003;6186;52.022;4.692;2023-07-13T01:56:23;2.25;2.25;0.75
12246;PMS7003;6186;52.022;4.692;2023-07-13T01:58:48;2.75;2.00;1.00
12246;PMS7003;6186;52.022;4.692;2023-07-13T02:01:14;2.00;2.00;0.00
12246;PMS7003;6186;52.022;4.692;2023-07-13T02:03:39;3.00;3.00;1.00
12246;PMS7003;6186;52.022;4.692;2023-07-13T02:06:04;2.25;2.00;0.00
12246;PMS7003;6186;52.022;4.692;2023-07-13T02:08:30;2.00;1.00;0.00
12246;PMS7003;6186;52.022;4.692;2023-07-13T02:10:56;1.40;1.40;0.00
12246;PMS7003;6186;52.022;4.692;2023-07-13T02:13:22;1.50;1.50;0.00
12246;PMS7003;6186;52.022;4.692;2023-07-13T02:15:49;2.00;2.00;0.00
12246;PMS7003;6186;52.022;4.692;2023-07-13T02:18:15;1.60;1.60;0.80
12246;PMS7003;6186;52.022;4.692;2023-07-13T02:20:40;2.00;2.00;0.00
12246;PMS7003;6186;52.022;4.692;2023-07-13T02:23:06;2.00;2.00;0.00
12246;PMS7003;6186;52.022;4.692;2023-07-13T02:25:31;1.00;1.00;0.00
12246;PMS7003;6186;52.022;4.692;2023-07-13T02:27:56;1.00;1.00;0.00
12246;PMS7003;6186;52.022;4.692;2023-07-13T02:30:21;2.75;2.00;0.00
12246;PMS7003;6186;52.022;4.692;2023-07-13T02:32:47;1.00;1.00;0.00
12246;PMS7003;6186;52.022;4.692;2023-07-13T02:35:12;2.00;2.00;0.25
12246;PMS7003;6186;52.022;4.692;2023-07-13T02:37:37;1.00;1.00;0.00
12246;PMS7003;6186;52.022;4.692;2023-07-13T02:40:02;1.75;1.50;0.00
12246;PMS7003;6186;52.022;4.692;2023-07-13T02:42:28;1.75;1.00;0.00
12246;PMS7003;6186;52.022;4.692;2023-07-13T02:44:53;1.00;1.00;0.00
12246;PMS7003;6186;52.022;4.692;2023-07-13T02:47:18;1.00;1.00;0.00
12246;PMS7003;6186;52.022;4.692;2023-07-13T02:49:44;2.00;1.00;0.00
12246;PMS7003;6186;52.022;4.692;2023-07-13T02:52:09;1.00;1.00;0.00
12246;PMS7003;6186;52.022;4.692;2023-07-13T02:54:34;1.00;1.00;0.00
12246;PMS7003;6186;52.022;4.692;2023-07-13T02:56:59;2.00;2.00;0.00
12246;PMS7003;6186;52.022;4.692;2023-07-13T02:59:25;1.00;1.00;0.00
12246;PMS7003;6186;52.022;4.692;2023-07-13T03:01:50;3.00;2.00;0.75
12246;PMS7003;6186;52.022;4.692;2023-07-13T03:04:15;2.00;2.00;0.00
12246;PMS7003;6186;52.022;4.692;2023-07-13T03:06:40;2.00;2.00;0.00
12246;PMS7003;6186;52.022;4.692;2023-07-13T03:09:05;1.00;1.00;0.00
12246;PMS7003;6186;52.022;4.692;2023-07-13T03:11:31;1.00;1.00;0.00
12246;PMS7003;6186;52.022;4.692;2023-07-13T03:13:56;1.25;1.25;0.00
12246;PMS7003;6186;52.022;4.692;2023-07-13T03:16:22;2.00;2.00;0.00
12246;PMS7003;6186;52.022;4.692;2023-07-13T03:18:47;2.00;2.00;0.25
12246;PMS7003;6186;52.022;4.692;2023-07-13T03:21:13;2.00;2.00;0.00
12246;PMS7003;6186;52.022;4.692;2023-07-13T03:23:40;2.60;2.00;0.00
12246;PMS7003;6186;52.022;4.692;2023-07-13T03:26:07;2.00;2.00;0.00
12246;PMS7003;6186;52.022;4.692;2023-07-13T03:28:34;2.20;1.60;0.00
12246;PMS7003;6186;52.022;4.692;2023-07-13T03:31:03;2.00;2.00;0.00
12246;PMS7003;6186;52.022;4.692;2023-07-13T03:33:32;2.00;2.00;0.00
12246;PMS7003;6186;52.022;4.692;2023-07-13T03:35:58;2.20;2.20;0.20
12246;PMS7003;6186;52.022;4.692;2023-07-13T03:38:23;3.00;3.00;1.00
12246;PMS7003;6186;52.022;4.692;2023-07-13T03:40:49;2.00;2.00;0.00
12246;PMS7003;6186;52.022;4.692;2023-07-13T03:43:14;4.00;2.00;0.00
12246;PMS7003;6186;52.022;4.692;2023-07-13T03:45:39;2.00;2.00;1.00
12246;PMS7003;6186;52.022;4.692;2023-07-13T03:48:05;2.00;2.00;1.00
12246;PMS7003;6186;52.022;4.692;2023-07-13T03:50:30;2.00;2.00;1.00
12246;PMS7003;6186;52.022;4.692;2023-07-13T03:52:57;4.00;2.80;1.00
12246;PMS7003;6186;52.022;4.692;2023-07-13T03:55:23;3.00;2.20;0.20
12246;PMS7003;6186;52.022;4.692;2023-07-13T03:57:52;3.75;3.00;0.75
12246;PMS7003;6186;52.022;4.692;2023-07-13T04:00:22;2.00;2.00;0.00
12246;PMS7003;6186;52.022;4.692;2023-07-13T04:02:47;2.00;2.00;1.00
12246;PMS7003;6186;52.022;4.692;2023-07-13T04:05:13;2.25;2.00;1.00
12246;PMS7003;6186;52.022;4.692;2023-07-13T04:07:38;2.00;2.00;0.75
12246;PMS7003;6186;52.022;4.692;2023-07-13T04:10:03;2.75;2.75;1.00
12246;PMS7003;6186;52.022;4.692;2023-07-13T04:12:29;3.25;3.00;1.00
12246;PMS7003;6186;52.022;4.692;2023-07-13T04:14:54;3.50;3.00;1.00
12246;PMS7003;6186;52.022;4.692;2023-07-13T04:17:19;4.00;3.00;1.00
12246;PMS7003;6186;52.022;4.692;2023-07-13T04:19:44;3.00;3.00;1.00
12246;PMS7003;6186;52.022;4.692;2023-07-13T04:22:09;2.00;2.00;0.25
12246;PMS7003;6186;52.022;4.692;2023-07-13T04:24:35;3.00;3.00;1.00
12246;PMS7003;6186;52.022;4.692;2023-07-13T04:27:00;2.75;2.75;0.75
12246;PMS7003;6186;52.022;4.692;2023-07-13T04:29:25;4.00;2.25;1.00
12246;PMS7003;6186;52.022;4.692;2023-07-13T04:31:50;3.00;2.50;1.00
12246;PMS7003;6186;52.022;4.692;2023-07-13T04:34:15;2.00;2.00;1.00
12246;PMS7003;6186;52.022;4.692;2023-07-13T04:36:41;3.00;2.00;1.00
12246;PMS7003;6186;52.022;4.692;2023-07-13T04:39:06;4.00;3.00;1.00
12246;PMS7003;6186;52.022;4.692;2023-07-13T04:41:31;2.00;2.00;0.50
12246;PMS7003;6186;52.022;4.692;2023-07-13T04:43:56;2.00;2.00;0.00
12246;PMS7003;6186;52.022;4.692;2023-07-13T04:46:21;2.75;2.75;1.00
12246;PMS7003;6186;52.022;4.692;2023-07-13T04:48:48;3.25;3.25;1.00
12246;PMS7003;6186;52.022;4.692;2023-07-13T04:51:14;2.20;2.20;1.00
12246;PMS7003;6186;52.022;4.692;2023-07-13T04:53:40;2.50;2.50;1.00
12246;PMS7003;6186;52.022;4.692;2023-07-13T04:56:05;2.00;2.00;1.00
12246;PMS7003;6186;52.022;4.692;2023-07-13T04:58:30;3.00;2.25;1.00
12246;PMS7003;6186;52.022;4.692;2023-07-13T05:01:03;3.80;3.20;1.00
12246;PMS7003;6186;52.022;4.692;2023-07-13T05:03:29;2.00;2.00;1.00
12246;PMS7003;6186;52.022;4.692;2023-07-13T05:05:59;2.75;2.75;1.00
12246;PMS7003;6186;52.022;4.692;2023-07-13T05:08:26;3.00;3.00;1.00
12246;PMS7003;6186;52.022;4.692;2023-07-13T05:10:51;2.00;2.00;1.00
12246;PMS7003;6186;52.022;4.692;2023-07-13T05:13:17;2.50;2.50;1.00
12246;PMS7003;6186;52.022;4.692;2023-07-13T05:15:42;2.50;2.50;1.00
12246;PMS7003;6186;52.022;4.692;2023-07-13T05:18:08;2.25;2.25;1.00
12246;PMS7003;6186;52.022;4.692;2023-07-13T05:20:33;2.50;2.25;1.00
12246;PMS7003;6186;52.022;4.692;2023-07-13T05:22:58;3.00;3.00;1.00
12246;PMS7003;6186;52.022;4.692;2023-07-13T05:25:23;3.00;3.00;1.00
12246;PMS7003;6186;52.022;4.692;2023-07-13T05:27:48;4.00;4.00;1.00
12246;PMS7003;6186;52.022;4.692;2023-07-13T05:30:14;4.00;3.00;1.00
12246;PMS7003;6186;52.022;4.692;2023-07-13T05:32:39;3.25;3.25;1.00
12246;PMS7003;6186;52.022;4.692;2023-07-13T05:35:05;3.00;3.00;1.00
12246;PMS7003;6186;52.022;4.692;2023-07-13T05:37:30;3.60;3.00;2.00
12246;PMS7003;6186;52.022;4.692;2023-07-13T05:39:55;3.25;3.25;2.00
12246;PMS7003;6186;52.022;4.692;2023-07-13T05:42:21;2.50;2.00;1.00
12246;PMS7003;6186;52.022;4.692;2023-07-13T05:44:46;2.50;2.50;0.25
12246;PMS7003;6186;52.022;4.692;2023-07-13T05:47:11;3.50;3.00;1.00
12246;PMS7003;6186;52.022;4.692;2023-07-13T05:49:36;2.00;2.00;1.00
12246;PMS7003;6186;52.022;4.692;2023-07-13T05:52:02;3.50;3.00;1.00
12246;PMS7003;6186;52.022;4.692;2023-07-13T05:54:27;3.00;2.00;1.00
12246;PMS7003;6186;52.022;4.692;2023-07-13T05:56:52;4.00;4.00;2.00
12246;PMS7003;6186;52.022;4.692;2023-07-13T05:59:17;3.75;3.25;1.50
12246;PMS7003;6186;52.022;4.692;2023-07-13T06:01:43;4.00;4.00;1.00
12246;PMS7003;6186;52.022;4.692;2023-07-13T06:04:08;4.00;3.75;1.00
12246;PMS7003;6186;52.022;4.692;2023-07-13T06:06:33;3.00;3.00;1.75
12246;PMS7003;6186;52.022;4.692;2023-07-13T06:08:58;2.75;2.75;1.00
12246;PMS7003;6186;52.022;4.692;2023-07-13T06:11:25;4.00;4.00;1.00
12246;PMS7003;6186;52.022;4.692;2023-07-13T06:13:52;4.00;4.00;1.80
12246;PMS7003;6186;52.022;4.692;2023-07-13T06:16:17;4.00;4.00;2.00
12246;PMS7003;6186;52.022;4.692;2023-07-13T06:18:43;4.50;3.75;2.00
12246;PMS7003;6186;52.022;4.692;2023-07-13T06:21:09;3.40;3.40;1.20
12246;PMS7003;6186;52.022;4.692;2023-07-13T06:23:36;3.00;2.40;1.00
12246;PMS7003;6186;52.022;4.692;2023-07-13T06:26:02;2.00;2.00;1.00
12246;PMS7003;6186;52.022;4.692;2023-07-13T06:28:28;2.00;2.00;0.80
12246;PMS7003;6186;52.022;4.692;2023-07-13T06:30:54;2.00;2.00;1.00
12246;PMS7003;6186;52.022;4.692;2023-07-13T06:33:19;3.00;2.00;0.50
12246;PMS7003;6186;52.022;4.692;2023-07-13T06:35:44;3.50;3.00;1.00
12246;PMS7003;6186;52.022;4.692;2023-07-13T06:38:09;2.00;2.00;0.75
12246;PMS7003;6186;52.022;4.692;2023-07-13T06:40:35;3.00;3.00;1.00
12246;PMS7003;6186;52.022;4.692;2023-07-13T06:43:00;3.00;2.00;0.50
12246;PMS7003;6186;52.022;4.692;2023-07-13T06:45:25;2.00;2.00;0.50
12246;PMS7003;6186;52.022;4.692;2023-07-13T06:47:50;2.00;2.00;0.75
12246;PMS7003;6186;52.022;4.692;2023-07-13T06:50:15;2.00;2.00;1.00
12246;PMS7003;6186;52.022;4.692;2023-07-13T06:52:41;2.00;2.00;0.00
12246;PMS7003;6186;52.022;4.692;2023-07-13T06:55:06;3.25;2.00;1.00
12246;PMS7003;6186;52.022;4.692;2023-07-13T06:57:32;2.75;2.00;1.00
12246;PMS7003;6186;52.022;4.692;2023-07-13T06:59:57;2.00;2.00;1.00
12246;PMS7003;6186;52.022;4.692;2023-07-13T07:02:22;3.25;2.75;1.00
12246;PMS7003;6186;52.022;4.692;2023-07-13T07:04:47;2.25;2.25;1.00
12246;PMS7003;6186;52.022;4.692;2023-07-13T07:07:13;2.00;2.00;0.50
12246;PMS7003;6186;52.022;4.692;2023-07-13T07:09:38;3.00;2.00;1.00
12246;PMS7003;6186;52.022;4.692;2023-07-13T07:12:03;2.00;2.00;0.00
12246;PMS7003;6186;52.022;4.692;2023-07-13T07:14:29;1.75;1.75;0.75
12246;PMS7003;6186;52.022;4.692;2023-07-13T07:16:55;2.20;2.00;0.00
12246;PMS7003;6186;52.022;4.692;2023-07-13T07:19:20;2.00;2.00;1.00
12246;PMS7003;6186;52.022;4.692;2023-07-13T07:21:45;2.25;2.00;0.25
12246;PMS7003;6186;52.022;4.692;2023-07-13T07:24:10;3.00;3.00;1.00
12246;PMS7003;6186;52.022;4.692;2023-07-13T07:26:36;2.00;2.00;1.00
12246;PMS7003;6186;52.022;4.692;2023-07-13T07:29:01;2.25;2.25;1.00
12246;PMS7003;6186;52.022;4.692;2023-07-13T07:31:26;3.00;3.00;1.00
12246;PMS7003;6186;52.022;4.692;2023-07-13T07:33:51;2.50;2.50;1.00
12246;PMS7003;6186;52.022;4.692;2023-07-13T07:36:17;4.25;4.00;1.75
12246;PMS7003;6186;52.022;4.692;2023-07-13T07:38:42;3.25;3.25;2.00
12246;PMS7003;6186;52.022;4.692;2023-07-13T07:41:08;3.00;3.00;2.00
12246;PMS7003;6186;52.022;4.692;2023-07-13T07:43:34;2.75;2.75;1.00
12246;PMS7003;6186;52.022;4.692;2023-07-13T07:45:59;3.00;3.00;1.75
12246;PMS7003;6186;52.022;4.692;2023-07-13T07:48:24;4.00;4.00;2.50
12246;PMS7003;6186;52.022;4.692;2023-07-13T07:50:50;4.00;3.50;1.75
12246;PMS7003;6186;52.022;4.692;2023-07-13T07:53:15;4.75;4.00;3.00
12246;PMS7003;6186;52.022;4.692;2023-07-13T07:55:40;3.75;3.75;1.50
12246;PMS7003;6186;52.022;4.692;2023-07-13T07:58:05;3.75;3.75;2.00
12246;PMS7003;6186;52.022;4.692;2023-07-13T08:00:31;3.25;3.00;2.00
12246;PMS7003;6186;52.022;4.692;2023-07-13T08:02:57;3.00;2.60;1.00
12246;PMS7003;6186;52.022;4.692;2023-07-13T08:05:23;3.60;3.00;1.00
12246;PMS7003;6186;52.022;4.692;2023-07-13T08:07:48;3.00;3.00;1.00
12246;PMS7003;6186;52.022;4.692;2023-07-13T08:10:13;4.75;3.50;1.25
12246;PMS7003;6186;52.022;4.692;2023-07-13T08:12:39;5.00;4.00;2.00
12246;PMS7003;6186;52.022;4.692;2023-07-13T08:15:05;3.00;3.00;2.00
12246;PMS7003;6186;52.022;4.692;2023-07-13T08:17:34;2.80;2.80;1.00
12246;PMS7003;6186;52.022;4.692;2023-07-13T08:19:59;3.50;2.75;1.00
12246;PMS7003;6186;52.022;4.692;2023-07-13T08:22:24;3.00;3.00;2.00
12246;PMS7003;6186;52.022;4.692;2023-07-13T08:24:49;3.50;3.00;2.00
12246;PMS7003;6186;52.022;4.692;2023-07-13T08:27:14;2.25;2.25;1.00
12246;PMS7003;6186;52.022;4.692;2023-07-13T08:29:40;4.00;3.00;1.75
12246;PMS7003;6186;52.022;4.692;2023-07-13T08:32:06;3.75;3.25;1.25
12246;PMS7003;6186;52.022;4.692;2023-07-13T08:34:32;4.20;4.20;1.40
12246;PMS7003;6186;52.022;4.692;2023-07-13T08:36:57;5.25;4.25;1.75
12246;PMS7003;6186;52.022;4.692;2023-07-13T08:39:22;4.00;4.00;1.50
12246;PMS7003;6186;52.022;4.692;2023-07-13T08:41:48;3.25;3.25;1.25
12246;PMS7003;6186;52.022;4.692;2023-07-13T08:44:25;3.40;3.40;2.00
12246;PMS7003;6186;52.022;4.692;2023-07-13T08:47:02;3.40;3.40;1.40
12246;PMS7003;6186;52.022;4.692;2023-07-13T08:49:28;4.25;4.00;2.00
12246;PMS7003;6186;52.022;4.692;2023-07-13T08:51:58;4.00;4.00;2.00
12246;PMS7003;6186;52.022;4.692;2023-07-13T08:54:34;4.40;4.40;2.00
12246;PMS7003;6186;52.022;4.692;2023-07-13T08:57:12;3.00;3.00;1.40
12246;PMS7003;6186;52.022;4.692;2023-07-13T08:59:39;4.60;4.40;2.20
12246;PMS7003;6186;52.022;4.692;2023-07-13T09:04:54;4.20;3.40;1.40
12246;PMS7003;6186;52.022;4.692;2023-07-13T09:09:59;4.00;4.00;2.00
12246;PMS7003;6186;52.022;4.692;2023-07-13T09:15:23;6.00;5.00;2.20
12246;PMS7003;6186;52.022;4.692;2023-07-13T09:17:50;3.80;3.80;2.00
12246;PMS7003;6186;52.022;4.692;2023-07-13T09:23:34;5.00;4.80;2.20
12246;PMS7003;6186;52.022;4.692;2023-07-13T09:28:29;4.00;4.00;2.00
12246;PMS7003;6186;52.022;4.692;2023-07-13T09:31:07;2.40;2.40;1.20
12246;PMS7003;6186;52.022;4.692;2023-07-13T09:33:38;3.00;3.00;2.00
12246;PMS7003;6186;52.022;4.692;2023-07-13T09:44:07;3.40;3.00;1.60
12246;PMS7003;6186;52.022;4.692;2023-07-13T09:46:32;3.40;3.40;1.40
12246;PMS7003;6186;52.022;4.692;2023-07-13T09:48:57;3.25;3.25;1.25
12246;PMS7003;6186;52.022;4.692;2023-07-13T09:51:23;2.25;2.25;0.75
12246;PMS7003;6186;52.022;4.692;2023-07-13T09:53:48;4.00;3.00;2.00
12246;PMS7003;6186;52.022;4.692;2023-07-13T09:56:24;3.60;3.60;1.60
12246;PMS7003;6186;52.022;4.692;2023-07-13T09:58:52;4.20;4.20;2.20
12246;PMS7003;6186;52.022;4.692;2023-07-13T10:01:17;4.75;3.75;2.00
12246;PMS7003;6186;52.022;4.692;2023-07-13T10:03:56;4.40;4.40;2.40
12246;PMS7003;6186;52.022;4.692;2023-07-13T10:06:22;3.25;3.25;1.25
12246;PMS7003;6186;52.022;4.692;2023-07-13T10:08:47;3.50;3.50;2.25
12246;PMS7003;6186;52.022;4.692;2023-07-13T10:13:59;5.00;4.00;2.00
12246;PMS7003;6186;52.022;4.692;2023-07-13T10:16:45;5.00;5.00;3.00
12246;PMS7003;6186;52.022;4.692;2023-07-13T10:19:18;4.20;4.20;3.00
12246;PMS7003;6186;52.022;4.692;2023-07-13T10:21:50;5.00;4.20;2.00
12246;PMS7003;6186;52.022;4.692;2023-07-13T10:26:56;4.80;4.20;2.00
12246;PMS7003;6186;52.022;4.692;2023-07-13T10:29:27;5.00;5.00;3.00
12246;PMS7003;6186;52.022;4.692;2023-07-13T10:31:54;4.00;4.00;3.00
12246;PMS7003;6186;52.022;4.692;2023-07-13T10:34:20;5.00;4.00;2.00
12246;PMS7003;6186;52.022;4.692;2023-07-13T10:36:46;5.00;4.75;3.00
12246;PMS7003;6186;52.022;4.692;2023-07-13T10:39:14;5.60;5.00;3.00
12246;PMS7003;6186;52.022;4.692;2023-07-13T10:41:44;4.80;4.80;3.00
12246;PMS7003;6186;52.022;4.692;2023-07-13T10:44:15;5.00;5.00;3.00
12246;PMS7003;6186;52.022;4.692;2023-07-13T10:46:46;4.00;4.00;2.00
12246;PMS7003;6186;52.022;4.692;2023-07-13T10:49:12;3.80;3.40;2.00
12246;PMS7003;6186;52.022;4.692;2023-07-13T10:51:38;4.80;4.40;2.20
12246;PMS7003;6186;52.022;4.692;2023-07-13T10:56:41;4.40;4.00;2.00
12246;PMS7003;6186;52.022;4.692;2023-07-13T10:59:15;4.00;4.00;2.00
12246;PMS7003;6186;52.022;4.692;2023-07-13T11:01:49;4.80;4.00;2.40
12246;PMS7003;6186;52.022;4.692;2023-07-13T11:04:29;3.80;3.00;1.40
12246;PMS7003;6186;52.022;4.692;2023-07-13T11:07:10;4.00;3.60;2.00
12246;PMS7003;6186;52.022;4.692;2023-07-13T11:09:51;3.80;3.20;1.20
12246;PMS7003;6186;52.022;4.692;2023-07-13T11:22:45;5.80;4.00;2.00
12246;PMS7003;6186;52.022;4.692;2023-07-13T11:27:50;4.20;4.00;2.00
12246;PMS7003;6186;52.022;4.692;2023-07-13T11:36:14;4.00;4.00;2.00
12246;PMS7003;6186;52.022;4.692;2023-07-13T11:38:46;3.40;3.40;2.20
12246;PMS7003;6186;52.022;4.692;2023-07-13T11:41:19;4.00;4.00;2.00
12246;PMS7003;6186;52.022;4.692;2023-07-13T11:43:55;4.00;4.00;1.80
12246;PMS7003;6186;52.022;4.692;2023-07-13T11:46:30;3.20;3.00;2.00
12246;PMS7003;6186;52.022;4.692;2023-07-13T11:48:55;3.75;3.75;2.00
12246;PMS7003;6186;52.022;4.692;2023-07-13T11:51:21;4.50;3.00;1.00
12246;PMS7003;6186;52.022;4.692;2023-07-13T11:53:48;3.40;3.40;2.00
12246;PMS7003;6186;52.022;4.692;2023-07-13T11:56:16;3.00;3.00;1.00
12246;PMS7003;6186;52.022;4.692;2023-07-13T11:58:41;4.80;3.40;2.00
12246;PMS7003;6186;52.022;4.692;2023-07-13T12:01:09;3.00;2.75;1.00
12246;PMS7003;6186;52.022;4.692;2023-07-13T12:03:43;3.00;3.00;1.80
12246;PMS7003;6186;52.022;4.692;2023-07-13T12:06:19;3.80;3.20;2.00
12246;PMS7003;6186;52.022;4.692;2023-07-13T12:08:49;4.00;3.40;2.00
12246;PMS7003;6186;52.022;4.692;2023-07-13T12:11:17;3.00;3.00;1.25
12246;PMS7003;6186;52.022;4.692;2023-07-13T12:13:43;3.80;3.00;1.20
12246;PMS7003;6186;52.022;4.692;2023-07-13T12:16:17;3.00;3.00;1.40
12246;PMS7003;6186;52.022;4.692;2023-07-13T12:18:55;3.60;3.60;2.00
12246;PMS7003;6186;52.022;4.692;2023-07-13T12:21:23;3.00;3.00;1.00
12246;PMS7003;6186;52.022;4.692;2023-07-13T12:23:54;3.00;2.60;1.60
12246;PMS7003;6186;52.022;4.692;2023-07-13T12:26:20;4.00;3.75;2.00
12246;PMS7003;6186;52.022;4.692;2023-07-13T12:28:46;3.00;3.00;1.00
12246;PMS7003;6186;52.022;4.692;2023-07-13T12:31:34;3.60;3.60;1.80
12246;PMS7003;6186;52.022;4.692;2023-07-13T12:34:02;2.40;2.00;1.00
12246;PMS7003;6186;52.022;4.692;2023-07-13T12:36:32;4.00;3.00;2.00
12246;PMS7003;6186;52.022;4.692;2023-07-13T12:39:03;3.40;3.00;1.40
12246;PMS7003;6186;52.022;4.692;2023-07-13T12:41:36;4.60;3.00;1.00
12246;PMS7003;6186;52.022;4.692;2023-07-13T12:44:01;4.00;3.00;1.00
12246;PMS7003;6186;52.022;4.692;2023-07-13T12:46:33;3.80;3.40;1.80
12246;PMS7003;6186;52.022;4.692;2023-07-13T12:48:58;3.50;3.50;1.00
12246;PMS7003;6186;52.022;4.692;2023-07-13T12:51:25;3.00;3.00;1.75
12246;PMS7003;6186;52.022;4.692;2023-07-13T12:53:56;4.00;3.00;1.00
12246;PMS7003;6186;52.022;4.692;2023-07-13T12:56:30;3.00;3.00;1.00
12246;PMS7003;6186;52.022;4.692;2023-07-13T12:58:59;2.80;2.60;1.00
12246;PMS7003;6186;52.022;4.692;2023-07-13T13:01:27;3.00;2.60;1.00
12246;PMS7003;6186;52.022;4.692;2023-07-13T13:03:54;3.00;2.40;1.00
12246;PMS7003;6186;52.022;4.692;2023-07-13T13:06:27;4.20;2.60;1.00
12246;PMS7003;6186;52.022;4.692;2023-07-13T13:08:54;2.60;2.00;1.00
12246;PMS7003;6186;52.022;4.692;2023-07-13T13:11:22;3.00;3.00;1.40
12246;PMS7003;6186;52.022;4.692;2023-07-13T13:13:48;3.00;2.80;1.00
12246;PMS7003;6186;52.022;4.692;2023-07-13T13:16:17;3.00;3.00;1.75
12246;PMS7003;6186;52.022;4.692;2023-07-13T13:18:46;3.00;2.80;1.00
12246;PMS7003;6186;52.022;4.692;2023-07-13T13:21:12;3.25;2.75;1.25
12246;PMS7003;6186;52.022;4.692;2023-07-13T13:23:37;2.00;2.00;1.00
12246;PMS7003;6186;52.022;4.692;2023-07-13T13:26:02;4.25;3.75;2.00
12246;PMS7003;6186;52.022;4.692;2023-07-13T13:28:31;3.00;2.40;1.00
12246;PMS7003;6186;52.022;4.692;2023-07-13T13:30:57;3.00;3.00;1.40
12246;PMS7003;6186;52.022;4.692;2023-07-13T13:33:22;2.50;2.00;1.00
12246;PMS7003;6186;52.022;4.692;2023-07-13T13:35:47;2.00;2.00;1.00
12246;PMS7003;6186;52.022;4.692;2023-07-13T13:38:17;3.00;2.50;0.75
12246;PMS7003;6186;52.022;4.692;2023-07-13T13:40:47;2.60;2.60;1.00
12246;PMS7003;6186;52.022;4.692;2023-07-13T13:43:16;3.00;3.00;1.00
12246;PMS7003;6186;52.022;4.692;2023-07-13T13:45:52;2.00;2.00;1.00
12246;PMS7003;6186;52.022;4.692;2023-07-13T13:48:32;2.80;2.00;1.00
12246;PMS7003;6186;52.022;4.692;2023-07-13T13:50:59;2.60;2.60;1.00
12246;PMS7003;6186;52.022;4.692;2023-07-13T13:53:26;3.00;2.00;1.00
12246;PMS7003;6186;52.022;4.692;2023-07-13T13:55:51;2.00;2.00;1.00
12246;PMS7003;6186;52.022;4.692;2023-07-13T13:58:17;2.00;2.00;1.00
12246;PMS7003;6186;52.022;4.692;2023-07-13T14:00:42;2.25;2.00;1.00
12246;PMS7003;6186;52.022;4.692;2023-07-13T14:03:08;2.50;2.00;0.00
12246;PMS7003;6186;52.022;4.692;2023-07-13T14:05:41;2.20;2.00;1.00
12246;PMS7003;6186;52.022;4.692;2023-07-13T14:08:11;2.00;2.00;1.00
12246;PMS7003;6186;52.022;4.692;2023-07-13T14:10:38;2.60;2.20;0.80
12246;PMS7003;6186;52.022;4.692;2023-07-13T14:13:04;3.00;2.00;1.00
12246;PMS7003;6186;52.022;4.692;2023-07-13T14:15:29;1.75;1.75;1.00
12246;PMS7003;6186;52.022;4.692;2023-07-13T14:17:54;2.75;2.00;1.00
12246;PMS7003;6186;52.022;4.692;2023-07-13T14:20:21;2.25;2.25;1.00
12246;PMS7003;6186;52.022;4.692;2023-07-13T14:22:48;3.00;2.20;1.00
12246;PMS7003;6186;52.022;4.692;2023-07-13T14:25:14;3.00;3.00;1.00
12246;PMS7003;6186;52.022;4.692;2023-07-13T14:27:41;2.00;2.00;1.00
12246;PMS7003;6186;52.022;4.692;2023-07-13T14:30:18;2.80;2.00;1.00
12246;PMS7003;6186;52.022;4.692;2023-07-13T14:32:46;2.00;2.00;0.60
12246;PMS7003;6186;52.022;4.692;2023-07-13T14:35:12;2.80;2.00;1.00
12246;PMS7003;6186;52.022;4.692;2023-07-13T14:37:39;2.80;2.80;1.00
12246;PMS7003;6186;52.022;4.692;2023-07-13T14:42:38;2.60;2.40;1.00
12246;PMS7003;6186;52.022;4.692;2023-07-13T14:45:03;3.00;2.00;1.00
12246;PMS7003;6186;52.022;4.692;2023-07-13T14:47:29;3.00;3.00;1.00
12246;PMS7003;6186;52.022;4.692;2023-07-13T14:49:54;2.50;2.50;1.00
12246;PMS7003;6186;52.022;4.692;2023-07-13T14:52:20;2.00;2.00;1.00
12246;PMS7003;6186;52.022;4.692;2023-07-13T14:54:47;3.20;3.20;1.00
12246;PMS7003;6186;52.022;4.692;2023-07-13T14:57:14;3.00;3.00;1.25
12246;PMS7003;6186;52.022;4.692;2023-07-13T14:59:42;3.20;3.00;1.00
12246;PMS7003;6186;52.022;4.692;2023-07-13T15:02:25;3.75;3.75;1.00
12246;PMS7003;6186;52.022;4.692;2023-07-13T15:04:54;2.80;2.80;1.40
12246;PMS7003;6186;52.022;4.692;2023-07-13T15:07:19;2.00;2.00;1.00
12246;PMS7003;6186;52.022;4.692;2023-07-13T15:09:45;2.00;2.00;1.00
12246;PMS7003;6186;52.022;4.692;2023-07-13T15:12:10;2.00;2.00;1.00
12246;PMS7003;6186;52.022;4.692;2023-07-13T15:14:35;2.00;2.00;0.50
12246;PMS7003;6186;52.022;4.692;2023-07-13T15:17:01;2.25;2.25;1.00
12246;PMS7003;6186;52.022;4.692;2023-07-13T15:19:26;2.00;2.00;1.00
12246;PMS7003;6186;52.022;4.692;2023-07-13T15:21:51;2.25;2.00;1.00
12246;PMS7003;6186;52.022;4.692;2023-07-13T15:24:19;2.00;2.00;1.00
12246;PMS7003;6186;52.022;4.692;2023-07-13T15:26:46;3.00;3.00;1.20
12246;PMS7003;6186;52.022;4.692;2023-07-13T15:29:11;2.00;2.00;0.50